sensor_id;sensor_type;location;lat;lon;timestamp;P1;durP1;ratioP1;P2;durP2;ratioP2
79036;SDS011;68434;59.896;30.474;2023-03-23T00:02:08;11.23;;;7.03;;
79036;SDS011;68434;59.896;30.474;2023-03-23T00:04:36;11.38;;;7.00;;
79036;SDS011;68434;59.896;30.474;2023-03-23T00:07:04;11.70;;;6.85;;
79036;SDS011;68434;59.896;30.474;2023-03-23T00:09:31;9.63;;;6.60;;
79036;SDS011;68434;59.896;30.474;2023-03-23T00:12:00;10.60;;;6.53;;
79036;SDS011;68434;59.896;30.474;2023-03-23T00:14:31;13.13;;;6.53;;
79036;SDS011;68434;59.896;30.474;2023-03-23T00:17:09;12.27;;;7.50;;
79036;SDS011;68434;59.896;30.474;2023-03-23T00:19:40;10.85;;;6.28;;
79036;SDS011;68434;59.896;30.474;2023-03-23T00:22:12;11.70;;;7.43;;
79036;SDS011;68434;59.896;30.474;2023-03-23T00:24:41;11.93;;;6.43;;
79036;SDS011;68434;59.896;30.474;2023-03-23T00:27:11;9.48;;;6.72;;
79036;SDS011;68434;59.896;30.474;2023-03-23T00:29:41;11.32;;;5.93;;
79036;SDS011;68434;59.896;30.474;2023-03-23T00:32:12;13.95;;;8.70;;
79036;SDS011;68434;59.896;30.474;2023-03-23T00:34:42;11.10;;;7.03;;
79036;SDS011;68434;59.896;30.474;2023-03-23T00:37:11;11.50;;;6.97;;
79036;SDS011;68434;59.896;30.474;2023-03-23T00:39:42;11.63;;;6.78;;
79036;SDS011;68434;59.896;30.474;2023-03-23T00:42:11;9.95;;;6.70;;
79036;SDS011;68434;59.896;30.474;2023-03-23T00:44:40;10.68;;;6.65;;
79036;SDS011;68434;59.896;30.474;2023-03-23T00:47:09;10.73;;;7.00;;
79036;SDS011;68434;59.896;30.474;2023-03-23T00:49:40;12.65;;;7.72;;
79036;SDS011;68434;59.896;30.474;2023-03-23T00:52:09;9.70;;;6.32;;
79036;SDS011;68434;59.896;30.474;2023-03-23T00:54:38;13.65;;;7.45;;
79036;SDS011;68434;59.896;30.474;2023-03-23T00:57:06;9.32;;;6.20;;
79036;SDS011;68434;59.896;30.474;2023-03-23T00:59:34;10.80;;;6.15;;
79036;SDS011;68434;59.896;30.474;2023-03-23T01:02:03;10.88;;;7.15;;
79036;SDS011;68434;59.896;30.474;2023-03-23T01:04:31;11.60;;;7.13;;
79036;SDS011;68434;59.896;30.474;2023-03-23T01:07:06;12.60;;;6.70;;
79036;SDS011;68434;59.896;30.474;2023-03-23T01:09:39;11.60;;;6.85;;
79036;SDS011;68434;59.896;30.474;2023-03-23T01:12:11;8.88;;;4.78;;
79036;SDS011;68434;59.896;30.474;2023-03-23T01:14:40;10.65;;;6.88;;
79036;SDS011;68434;59.896;30.474;2023-03-23T01:17:09;12.52;;;7.40;;
79036;SDS011;68434;59.896;30.474;2023-03-23T01:19:36;9.32;;;6.63;;
79036;SDS011;68434;59.896;30.474;2023-03-23T01:22:07;12.55;;;8.70;;
79036;SDS011;68434;59.896;30.474;2023-03-23T01:24:34;11.95;;;7.30;;
79036;SDS011;68434;59.896;30.474;2023-03-23T01:27:02;12.20;;;7.00;;
79036;SDS011;68434;59.896;30.474;2023-03-23T01:29:32;13.13;;;7.50;;
79036;SDS011;68434;59.896;30.474;2023-03-23T01:32:00;15.18;;;7.82;;
79036;SDS011;68434;59.896;30.474;2023-03-23T01:34:28;13.13;;;8.20;;
79036;SDS011;68434;59.896;30.474;2023-03-23T01:36:57;10.30;;;6.70;;
79036;SDS011;68434;59.896;30.474;2023-03-23T01:39:30;14.15;;;8.38;;
79036;SDS011;68434;59.896;30.474;2023-03-23T01:42:00;11.90;;;8.35;;
79036;SDS011;68434;59.896;30.474;2023-03-23T01:47:35;12.80;;;7.53;;
79036;SDS011;68434;59.896;30.474;2023-03-23T01:50:03;12.07;;;8.65;;
79036;SDS011;68434;59.896;30.474;2023-03-23T01:52:31;13.60;;;8.30;;
79036;SDS011;68434;59.896;30.474;2023-03-23T01:55:03;9.77;;;6.65;;
79036;SDS011;68434;59.896;30.474;2023-03-23T01:57:32;14.15;;;8.32;;
79036;SDS011;68434;59.896;30.474;2023-03-23T02:00:04;12.48;;;7.47;;
79036;SDS011;68434;59.896;30.474;2023-03-23T02:02:41;11.38;;;7.47;;
79036;SDS011;68434;59.896;30.474;2023-03-23T02:05:17;12.30;;;9.15;;
79036;SDS011;68434;59.896;30.474;2023-03-23T02:07:48;12.68;;;8.32;;
79036;SDS011;68434;59.896;30.474;2023-03-23T02:10:19;14.10;;;8.88;;
79036;SDS011;68434;59.896;30.474;2023-03-23T02:12:47;11.77;;;8.18;;
79036;SDS011;68434;59.896;30.474;2023-03-23T02:15:15;15.27;;;9.35;;
79036;SDS011;68434;59.896;30.474;2023-03-23T02:17:46;13.75;;;9.02;;
79036;SDS011;68434;59.896;30.474;2023-03-23T02:20:33;17.15;;;9.73;;
79036;SDS011;68434;59.896;30.474;2023-03-23T02:23:18;11.85;;;8.23;;
79036;SDS011;68434;59.896;30.474;2023-03-23T02:26:04;11.80;;;7.70;;
79036;SDS011;68434;59.896;30.474;2023-03-23T02:28:51;12.35;;;8.00;;
79036;SDS011;68434;59.896;30.474;2023-03-23T02:31:47;9.98;;;5.90;;
79036;SDS011;68434;59.896;30.474;2023-03-23T02:34:35;12.93;;;7.72;;
79036;SDS011;68434;59.896;30.474;2023-03-23T02:37:08;11.43;;;7.63;;
79036;SDS011;68434;59.896;30.474;2023-03-23T02:39:41;11.57;;;7.15;;
79036;SDS011;68434;59.896;30.474;2023-03-23T02:42:13;14.02;;;9.27;;
79036;SDS011;68434;59.896;30.474;2023-03-23T02:44:46;9.77;;;7.35;;
79036;SDS011;68434;59.896;30.474;2023-03-23T02:47:17;12.23;;;7.80;;
79036;SDS011;68434;59.896;30.474;2023-03-23T02:49:50;11.88;;;6.35;;
79036;SDS011;68434;59.896;30.474;2023-03-23T02:52:20;9.88;;;6.25;;
79036;SDS011;68434;59.896;30.474;2023-03-23T02:54:52;11.02;;;7.53;;
79036;SDS011;68434;59.896;30.474;2023-03-23T02:57:22;10.98;;;7.82;;
79036;SDS011;68434;59.896;30.474;2023-03-23T02:59:53;10.70;;;7.43;;
79036;SDS011;68434;59.896;30.474;2023-03-23T03:02:21;13.10;;;7.55;;
79036;SDS011;68434;59.896;30.474;2023-03-23T03:04:54;9.15;;;6.38;;
79036;SDS011;68434;59.896;30.474;2023-03-23T03:07:30;12.05;;;7.63;;
79036;SDS011;68434;59.896;30.474;2023-03-23T03:10:05;10.50;;;6.80;;
79036;SDS011;68434;59.896;30.474;2023-03-23T03:15:13;11.45;;;7.32;;
79036;SDS011;68434;59.896;30.474;2023-03-23T03:17:52;13.07;;;6.72;;
79036;SDS011;68434;59.896;30.474;2023-03-23T03:20:28;10.75;;;7.03;;
79036;SDS011;68434;59.896;30.474;2023-03-23T03:22:57;9.48;;;6.25;;
79036;SDS011;68434;59.896;30.474;2023-03-23T03:25:27;9.70;;;6.22;;
79036;SDS011;68434;59.896;30.474;2023-03-23T03:27:56;9.73;;;6.57;;
79036;SDS011;68434;59.896;30.474;2023-03-23T03:30:36;11.05;;;7.63;;
79036;SDS011;68434;59.896;30.474;2023-03-23T03:33:06;13.13;;;7.88;;
79036;SDS011;68434;59.896;30.474;2023-03-23T03:35:38;9.90;;;6.88;;
79036;SDS011;68434;59.896;30.474;2023-03-23T03:38:10;10.95;;;6.13;;
79036;SDS011;68434;59.896;30.474;2023-03-23T03:40:39;11.15;;;7.10;;
79036;SDS011;68434;59.896;30.474;2023-03-23T03:43:07;9.55;;;5.82;;
79036;SDS011;68434;59.896;30.474;2023-03-23T03:45:35;9.30;;;6.15;;
79036;SDS011;68434;59.896;30.474;2023-03-23T03:48:02;7.65;;;4.82;;
79036;SDS011;68434;59.896;30.474;2023-03-23T03:50:31;9.85;;;5.65;;
79036;SDS011;68434;59.896;30.474;2023-03-23T03:53:00;9.48;;;6.40;;
79036;SDS011;68434;59.896;30.474;2023-03-23T03:55:28;13.02;;;8.05;;
79036;SDS011;68434;59.896;30.474;2023-03-23T03:58:02;10.75;;;5.88;;
79036;SDS011;68434;59.896;30.474;2023-03-23T04:00:53;8.65;;;5.78;;
79036;SDS011;68434;59.896;30.474;2023-03-23T04:03:26;8.80;;;5.80;;
79036;SDS011;68434;59.896;30.474;2023-03-23T04:06:04;9.98;;;5.93;;
79036;SDS011;68434;59.896;30.474;2023-03-23T04:08:35;9.38;;;6.00;;
79036;SDS011;68434;59.896;30.474;2023-03-23T04:11:04;8.02;;;5.70;;
79036;SDS011;68434;59.896;30.474;2023-03-23T04:13:32;10.23;;;6.05;;
79036;SDS011;68434;59.896;30.474;2023-03-23T04:16:09;10.52;;;6.88;;
79036;SDS011;68434;59.896;30.474;2023-03-23T04:18:39;9.40;;;5.95;;
79036;SDS011;68434;59.896;30.474;2023-03-23T04:21:09;8.73;;;5.80;;
79036;SDS011;68434;59.896;30.474;2023-03-23T04:23:38;12.88;;;7.63;;
79036;SDS011;68434;59.896;30.474;2023-03-23T04:26:07;8.85;;;6.07;;
79036;SDS011;68434;59.896;30.474;2023-03-23T04:28:42;11.70;;;7.25;;
79036;SDS011;68434;59.896;30.474;2023-03-23T04:31:32;8.43;;;5.70;;
79036;SDS011;68434;59.896;30.474;2023-03-23T04:34:19;5.50;;;3.53;;
79036;SDS011;68434;59.896;30.474;2023-03-23T04:36:49;8.80;;;5.35;;
79036;SDS011;68434;59.896;30.474;2023-03-23T04:39:23;11.18;;;6.20;;
79036;SDS011;68434;59.896;30.474;2023-03-23T04:41:57;8.93;;;5.80;;
79036;SDS011;68434;59.896;30.474;2023-03-23T04:44:45;9.23;;;6.13;;
79036;SDS011;68434;59.896;30.474;2023-03-23T04:47:22;10.88;;;6.68;;
79036;SDS011;68434;59.896;30.474;2023-03-23T04:49:55;9.38;;;6.28;;
79036;SDS011;68434;59.896;30.474;2023-03-23T04:52:35;10.80;;;5.57;;
79036;SDS011;68434;59.896;30.474;2023-03-23T04:55:08;8.43;;;5.68;;
79036;SDS011;68434;59.896;30.474;2023-03-23T04:57:38;9.63;;;6.65;;
79036;SDS011;68434;59.896;30.474;2023-03-23T05:00:35;11.65;;;6.65;;
79036;SDS011;68434;59.896;30.474;2023-03-23T05:03:04;16.30;;;7.53;;
79036;SDS011;68434;59.896;30.474;2023-03-23T05:05:33;9.68;;;5.70;;
79036;SDS011;68434;59.896;30.474;2023-03-23T05:08:05;10.57;;;6.63;;
79036;SDS011;68434;59.896;30.474;2023-03-23T05:10:38;10.18;;;6.40;;
79036;SDS011;68434;59.896;30.474;2023-03-23T05:13:09;12.98;;;9.38;;
79036;SDS011;68434;59.896;30.474;2023-03-23T05:15:37;11.38;;;7.90;;
79036;SDS011;68434;59.896;30.474;2023-03-23T05:18:07;13.00;;;6.68;;
79036;SDS011;68434;59.896;30.474;2023-03-23T05:23:08;9.60;;;6.22;;
79036;SDS011;68434;59.896;30.474;2023-03-23T05:25:39;11.30;;;6.18;;
79036;SDS011;68434;59.896;30.474;2023-03-23T05:28:13;11.23;;;7.22;;
79036;SDS011;68434;59.896;30.474;2023-03-23T05:31:07;12.38;;;6.72;;
79036;SDS011;68434;59.896;30.474;2023-03-23T05:33:35;10.02;;;5.85;;
79036;SDS011;68434;59.896;30.474;2023-03-23T05:36:11;9.48;;;6.07;;
79036;SDS011;68434;59.896;30.474;2023-03-23T05:41:46;9.70;;;5.70;;
79036;SDS011;68434;59.896;30.474;2023-03-23T05:44:14;11.23;;;6.68;;
79036;SDS011;68434;59.896;30.474;2023-03-23T05:46:47;8.90;;;6.03;;
79036;SDS011;68434;59.896;30.474;2023-03-23T05:49:16;11.68;;;6.60;;
79036;SDS011;68434;59.896;30.474;2023-03-23T05:51:45;10.18;;;6.10;;
79036;SDS011;68434;59.896;30.474;2023-03-23T05:54:15;9.65;;;6.40;;
79036;SDS011;68434;59.896;30.474;2023-03-23T05:56:47;8.55;;;5.90;;
79036;SDS011;68434;59.896;30.474;2023-03-23T05:59:38;9.57;;;5.82;;
79036;SDS011;68434;59.896;30.474;2023-03-23T06:02:11;7.93;;;5.60;;
79036;SDS011;68434;59.896;30.474;2023-03-23T06:04:42;9.43;;;6.30;;
79036;SDS011;68434;59.896;30.474;2023-03-23T06:07:24;7.97;;;4.55;;
79036;SDS011;68434;59.896;30.474;2023-03-23T06:09:58;12.18;;;6.60;;
79036;SDS011;68434;59.896;30.474;2023-03-23T06:12:27;9.60;;;5.13;;
79036;SDS011;68434;59.896;30.474;2023-03-23T06:15:17;10.48;;;6.72;;
79036;SDS011;68434;59.896;30.474;2023-03-23T06:18:12;8.73;;;5.00;;
79036;SDS011;68434;59.896;30.474;2023-03-23T06:20:47;9.63;;;5.43;;
79036;SDS011;68434;59.896;30.474;2023-03-23T06:23:45;9.38;;;5.03;;
79036;SDS011;68434;59.896;30.474;2023-03-23T06:26:15;11.13;;;6.32;;
79036;SDS011;68434;59.896;30.474;2023-03-23T06:28:52;7.53;;;4.53;;
79036;SDS011;68434;59.896;30.474;2023-03-23T06:31:20;9.55;;;5.57;;
79036;SDS011;68434;59.896;30.474;2023-03-23T06:33:50;10.52;;;6.05;;
79036;SDS011;68434;59.896;30.474;2023-03-23T06:36:24;10.18;;;5.03;;
79036;SDS011;68434;59.896;30.474;2023-03-23T06:39:05;8.68;;;5.28;;
79036;SDS011;68434;59.896;30.474;2023-03-23T06:41:47;7.10;;;4.35;;
79036;SDS011;68434;59.896;30.474;2023-03-23T06:44:17;8.07;;;4.90;;
79036;SDS011;68434;59.896;30.474;2023-03-23T06:46:44;7.60;;;4.97;;
79036;SDS011;68434;59.896;30.474;2023-03-23T06:49:24;8.82;;;5.22;;
79036;SDS011;68434;59.896;30.474;2023-03-23T06:54:29;9.57;;;4.82;;
79036;SDS011;68434;59.896;30.474;2023-03-23T06:56:59;8.48;;;5.30;;
79036;SDS011;68434;59.896;30.474;2023-03-23T06:59:28;6.70;;;4.78;;
79036;SDS011;68434;59.896;30.474;2023-03-23T07:01:56;7.57;;;4.60;;
79036;SDS011;68434;59.896;30.474;2023-03-23T07:04:24;6.53;;;4.80;;
79036;SDS011;68434;59.896;30.474;2023-03-23T07:07:00;5.90;;;4.13;;
79036;SDS011;68434;59.896;30.474;2023-03-23T07:09:30;6.43;;;3.97;;
79036;SDS011;68434;59.896;30.474;2023-03-23T07:11:58;6.35;;;4.20;;
79036;SDS011;68434;59.896;30.474;2023-03-23T07:14:33;6.28;;;3.63;;
79036;SDS011;68434;59.896;30.474;2023-03-23T07:17:00;6.18;;;4.03;;
79036;SDS011;68434;59.896;30.474;2023-03-23T07:19:32;6.40;;;3.58;;
79036;SDS011;68434;59.896;30.474;2023-03-23T07:22:00;6.15;;;3.10;;
79036;SDS011;68434;59.896;30.474;2023-03-23T07:24:27;5.50;;;3.40;;
79036;SDS011;68434;59.896;30.474;2023-03-23T07:27:04;5.43;;;3.63;;
79036;SDS011;68434;59.896;30.474;2023-03-23T07:29:33;5.63;;;3.42;;
79036;SDS011;68434;59.896;30.474;2023-03-23T07:32:09;5.93;;;3.25;;
79036;SDS011;68434;59.896;30.474;2023-03-23T07:34:38;6.35;;;3.45;;
79036;SDS011;68434;59.896;30.474;2023-03-23T07:37:32;6.78;;;3.60;;
79036;SDS011;68434;59.896;30.474;2023-03-23T07:40:01;5.82;;;3.53;;
79036;SDS011;68434;59.896;30.474;2023-03-23T07:42:42;8.50;;;3.78;;
79036;SDS011;68434;59.896;30.474;2023-03-23T07:45:12;5.15;;;3.30;;
79036;SDS011;68434;59.896;30.474;2023-03-23T07:47:40;6.15;;;3.55;;
79036;SDS011;68434;59.896;30.474;2023-03-23T07:50:08;4.85;;;3.10;;
79036;SDS011;68434;59.896;30.474;2023-03-23T07:52:40;5.68;;;3.38;;
79036;SDS011;68434;59.896;30.474;2023-03-23T07:55:09;5.03;;;3.25;;
79036;SDS011;68434;59.896;30.474;2023-03-23T07:58:00;4.10;;;2.95;;
79036;SDS011;68434;59.896;30.474;2023-03-23T08:00:30;5.10;;;3.20;;
79036;SDS011;68434;59.896;30.474;2023-03-23T08:03:04;6.10;;;3.17;;
79036;SDS011;68434;59.896;30.474;2023-03-23T08:05:57;5.13;;;3.50;;
79036;SDS011;68434;59.896;30.474;2023-03-23T08:08:53;5.28;;;3.65;;
79036;SDS011;68434;59.896;30.474;2023-03-23T08:11:40;5.43;;;3.40;;
79036;SDS011;68434;59.896;30.474;2023-03-23T08:14:34;5.43;;;3.33;;
79036;SDS011;68434;59.896;30.474;2023-03-23T08:17:22;5.55;;;3.33;;
79036;SDS011;68434;59.896;30.474;2023-03-23T08:20:10;6.45;;;3.55;;
79036;SDS011;68434;59.896;30.474;2023-03-23T08:22:57;5.57;;;3.70;;
79036;SDS011;68434;59.896;30.474;2023-03-23T08:25:54;5.28;;;3.20;;
79036;SDS011;68434;59.896;30.474;2023-03-23T08:28:46;6.18;;;3.97;;
79036;SDS011;68434;59.896;30.474;2023-03-23T08:31:31;6.00;;;4.00;;
79036;SDS011;68434;59.896;30.474;2023-03-23T08:34:27;4.78;;;3.15;;
79036;SDS011;68434;59.896;30.474;2023-03-23T08:37:12;5.72;;;3.67;;
79036;SDS011;68434;59.896;30.474;2023-03-23T08:40:01;4.93;;;3.90;;
79036;SDS011;68434;59.896;30.474;2023-03-23T08:42:59;4.95;;;3.10;;
79036;SDS011;68434;59.896;30.474;2023-03-23T08:45:47;6.60;;;3.80;;
79036;SDS011;68434;59.896;30.474;2023-03-23T08:48:34;5.25;;;3.20;;
79036;SDS011;68434;59.896;30.474;2023-03-23T08:54:30;7.13;;;3.35;;
79036;SDS011;68434;59.896;30.474;2023-03-23T08:57:16;4.30;;;2.97;;
79036;SDS011;68434;59.896;30.474;2023-03-23T09:00:03;5.15;;;2.78;;
79036;SDS011;68434;59.896;30.474;2023-03-23T09:02:53;5.97;;;2.65;;
79036;SDS011;68434;59.896;30.474;2023-03-23T09:05:26;6.00;;;3.25;;
79036;SDS011;68434;59.896;30.474;2023-03-23T09:08:04;4.18;;;2.45;;
79036;SDS011;68434;59.896;30.474;2023-03-23T09:10:32;6.97;;;2.90;;
79036;SDS011;68434;59.896;30.474;2023-03-23T09:12:59;4.78;;;2.50;;
79036;SDS011;68434;59.896;30.474;2023-03-23T09:15:27;4.63;;;2.40;;
79036;SDS011;68434;59.896;30.474;2023-03-23T09:17:54;4.85;;;2.85;;
79036;SDS011;68434;59.896;30.474;2023-03-23T09:20:23;4.03;;;2.75;;
79036;SDS011;68434;59.896;30.474;2023-03-23T09:22:54;6.13;;;2.58;;
79036;SDS011;68434;59.896;30.474;2023-03-23T09:25:25;4.05;;;2.40;;
79036;SDS011;68434;59.896;30.474;2023-03-23T09:27:55;5.10;;;2.30;;
79036;SDS011;68434;59.896;30.474;2023-03-23T09:30:24;4.80;;;2.67;;
79036;SDS011;68434;59.896;30.474;2023-03-23T09:32:53;4.13;;;2.72;;
79036;SDS011;68434;59.896;30.474;2023-03-23T09:35:21;4.47;;;2.17;;
79036;SDS011;68434;59.896;30.474;2023-03-23T09:37:50;4.53;;;2.30;;
79036;SDS011;68434;59.896;30.474;2023-03-23T09:40:19;4.05;;;2.45;;
79036;SDS011;68434;59.896;30.474;2023-03-23T09:42:53;6.28;;;2.80;;
79036;SDS011;68434;59.896;30.474;2023-03-23T09:45:33;4.38;;;2.05;;
79036;SDS011;68434;59.896;30.474;2023-03-23T09:48:10;3.67;;;2.40;;
79036;SDS011;68434;59.896;30.474;2023-03-23T09:50:52;4.97;;;2.20;;
79036;SDS011;68434;59.896;30.474;2023-03-23T09:53:28;5.80;;;2.70;;
79036;SDS011;68434;59.896;30.474;2023-03-23T09:56:00;3.88;;;2.35;;
79036;SDS011;68434;59.896;30.474;2023-03-23T09:58:33;3.22;;;2.05;;
79036;SDS011;68434;59.896;30.474;2023-03-23T10:01:06;5.03;;;2.85;;
79036;SDS011;68434;59.896;30.474;2023-03-23T10:03:39;7.60;;;2.40;;
79036;SDS011;68434;59.896;30.474;2023-03-23T10:06:09;4.93;;;2.55;;
79036;SDS011;68434;59.896;30.474;2023-03-23T10:08:39;5.97;;;2.80;;
79036;SDS011;68434;59.896;30.474;2023-03-23T10:11:12;4.78;;;2.60;;
79036;SDS011;68434;59.896;30.474;2023-03-23T10:13:55;5.88;;;2.53;;
79036;SDS011;68434;59.896;30.474;2023-03-23T10:16:35;5.82;;;2.97;;
79036;SDS011;68434;59.896;30.474;2023-03-23T10:19:08;6.45;;;3.38;;
79036;SDS011;68434;59.896;30.474;2023-03-23T10:21:40;7.18;;;3.17;;
79036;SDS011;68434;59.896;30.474;2023-03-23T10:24:14;4.95;;;2.45;;
79036;SDS011;68434;59.896;30.474;2023-03-23T10:26:48;5.47;;;2.75;;
79036;SDS011;68434;59.896;30.474;2023-03-23T10:29:26;5.13;;;2.75;;
79036;SDS011;68434;59.896;30.474;2023-03-23T10:31:58;6.07;;;2.88;;
79036;SDS011;68434;59.896;30.474;2023-03-23T10:34:30;5.80;;;2.88;;
79036;SDS011;68434;59.896;30.474;2023-03-23T10:37:03;5.15;;;2.97;;
79036;SDS011;68434;59.896;30.474;2023-03-23T10:39:38;6.03;;;2.50;;
79036;SDS011;68434;59.896;30.474;2023-03-23T10:42:20;4.50;;;2.63;;
79036;SDS011;68434;59.896;30.474;2023-03-23T10:44:51;7.20;;;3.00;;
79036;SDS011;68434;59.896;30.474;2023-03-23T10:47:18;9.10;;;2.90;;
79036;SDS011;68434;59.896;30.474;2023-03-23T10:49:47;3.97;;;2.67;;
79036;SDS011;68434;59.896;30.474;2023-03-23T10:52:24;5.22;;;3.17;;
79036;SDS011;68434;59.896;30.474;2023-03-23T10:54:58;6.80;;;2.85;;
79036;SDS011;68434;59.896;30.474;2023-03-23T10:57:30;8.38;;;3.03;;
79036;SDS011;68434;59.896;30.474;2023-03-23T11:00:02;6.05;;;2.80;;
79036;SDS011;68434;59.896;30.474;2023-03-23T11:02:38;11.73;;;5.93;;
79036;SDS011;68434;59.896;30.474;2023-03-23T11:05:13;6.25;;;2.90;;
79036;SDS011;68434;59.896;30.474;2023-03-23T11:07:48;7.13;;;3.00;;
79036;SDS011;68434;59.896;30.474;2023-03-23T11:10:21;5.13;;;2.70;;
79036;SDS011;68434;59.896;30.474;2023-03-23T11:12:51;5.50;;;3.10;;
79036;SDS011;68434;59.896;30.474;2023-03-23T11:15:30;6.93;;;2.83;;
79036;SDS011;68434;59.896;30.474;2023-03-23T11:18:02;3.80;;;2.67;;
79036;SDS011;68434;59.896;30.474;2023-03-23T11:20:34;5.32;;;3.00;;
79036;SDS011;68434;59.896;30.474;2023-03-23T11:23:08;7.30;;;3.42;;
79036;SDS011;68434;59.896;30.474;2023-03-23T11:25:54;6.60;;;3.45;;
79036;SDS011;68434;59.896;30.474;2023-03-23T11:28:26;6.07;;;3.20;;
79036;SDS011;68434;59.896;30.474;2023-03-23T11:30:59;5.55;;;3.28;;
79036;SDS011;68434;59.896;30.474;2023-03-23T11:33:29;9.10;;;3.30;;
79036;SDS011;68434;59.896;30.474;2023-03-23T11:36:03;6.95;;;3.70;;
79036;SDS011;68434;59.896;30.474;2023-03-23T11:38:32;6.85;;;3.75;;
79036;SDS011;68434;59.896;30.474;2023-03-23T11:41:01;8.05;;;3.67;;
79036;SDS011;68434;59.896;30.474;2023-03-23T11:43:39;6.15;;;3.80;;
79036;SDS011;68434;59.896;30.474;2023-03-23T11:46:13;8.45;;;3.40;;
79036;SDS011;68434;59.896;30.474;2023-03-23T11:48:49;8.75;;;3.40;;
79036;SDS011;68434;59.896;30.474;2023-03-23T11:51:24;5.68;;;3.00;;
79036;SDS011;68434;59.896;30.474;2023-03-23T11:53:59;5.55;;;3.15;;
79036;SDS011;68434;59.896;30.474;2023-03-23T11:56:33;4.93;;;3.00;;
79036;SDS011;68434;59.896;30.474;2023-03-23T11:59:02;8.88;;;3.55;;
79036;SDS011;68434;59.896;30.474;2023-03-23T12:01:43;5.43;;;2.95;;
79036;SDS011;68434;59.896;30.474;2023-03-23T12:04:30;5.40;;;2.83;;
79036;SDS011;68434;59.896;30.474;2023-03-23T12:07:08;4.90;;;2.75;;
79036;SDS011;68434;59.896;30.474;2023-03-23T12:09:45;6.55;;;3.03;;
79036;SDS011;68434;59.896;30.474;2023-03-23T12:12:21;5.95;;;2.83;;
79036;SDS011;68434;59.896;30.474;2023-03-23T12:14:59;7.13;;;3.15;;
79036;SDS011;68434;59.896;30.474;2023-03-23T12:17:39;6.35;;;2.60;;
79036;SDS011;68434;59.896;30.474;2023-03-23T12:20:20;4.65;;;2.35;;
79036;SDS011;68434;59.896;30.474;2023-03-23T12:25:37;4.80;;;2.63;;
79036;SDS011;68434;59.896;30.474;2023-03-23T12:28:17;4.57;;;3.05;;
79036;SDS011;68434;59.896;30.474;2023-03-23T12:30:55;6.30;;;2.70;;
79036;SDS011;68434;59.896;30.474;2023-03-23T12:33:33;4.40;;;2.47;;
79036;SDS011;68434;59.896;30.474;2023-03-23T12:36:15;6.35;;;2.83;;
79036;SDS011;68434;59.896;30.474;2023-03-23T12:38:54;5.68;;;2.40;;
79036;SDS011;68434;59.896;30.474;2023-03-23T12:41:36;5.88;;;2.65;;
79036;SDS011;68434;59.896;30.474;2023-03-23T12:49:39;5.90;;;2.70;;
79036;SDS011;68434;59.896;30.474;2023-03-23T12:52:16;4.40;;;2.67;;
79036;SDS011;68434;59.896;30.474;2023-03-23T12:54:49;3.85;;;2.40;;
79036;SDS011;68434;59.896;30.474;2023-03-23T12:57:25;5.40;;;2.88;;
79036;SDS011;68434;59.896;30.474;2023-03-23T12:59:59;14.18;;;8.80;;
79036;SDS011;68434;59.896;30.474;2023-03-23T13:02:39;7.25;;;4.25;;
79036;SDS011;68434;59.896;30.474;2023-03-23T13:05:12;5.00;;;2.88;;
79036;SDS011;68434;59.896;30.474;2023-03-23T13:07:53;3.97;;;2.30;;
79036;SDS011;68434;59.896;30.474;2023-03-23T13:10:25;7.57;;;2.55;;
79036;SDS011;68434;59.896;30.474;2023-03-23T13:12:56;6.00;;;2.55;;
79036;SDS011;68434;59.896;30.474;2023-03-23T13:15:28;6.93;;;2.20;;
79036;SDS011;68434;59.896;30.474;2023-03-23T13:18:04;6.90;;;2.72;;
79036;SDS011;68434;59.896;30.474;2023-03-23T13:23:31;3.75;;;2.10;;
79036;SDS011;68434;59.896;30.474;2023-03-23T13:26:03;7.32;;;2.47;;
79036;SDS011;68434;59.896;30.474;2023-03-23T13:28:45;5.88;;;2.42;;
79036;SDS011;68434;59.896;30.474;2023-03-23T13:31:20;5.07;;;2.83;;
79036;SDS011;68434;59.896;30.474;2023-03-23T13:33:59;5.13;;;2.72;;
79036;SDS011;68434;59.896;30.474;2023-03-23T13:36:31;4.97;;;2.45;;
79036;SDS011;68434;59.896;30.474;2023-03-23T13:39:04;4.97;;;2.50;;
79036;SDS011;68434;59.896;30.474;2023-03-23T13:41:45;5.53;;;2.50;;
79036;SDS011;68434;59.896;30.474;2023-03-23T13:44:15;6.13;;;2.30;;
79036;SDS011;68434;59.896;30.474;2023-03-23T13:46:55;5.03;;;2.60;;
79036;SDS011;68434;59.896;30.474;2023-03-23T13:49:24;4.80;;;2.15;;
79036;SDS011;68434;59.896;30.474;2023-03-23T13:52:06;3.60;;;2.03;;
79036;SDS011;68434;59.896;30.474;2023-03-23T13:54:43;8.80;;;2.50;;
79036;SDS011;68434;59.896;30.474;2023-03-23T13:57:21;7.97;;;4.38;;
79036;SDS011;68434;59.896;30.474;2023-03-23T13:59:57;5.65;;;3.00;;
79036;SDS011;68434;59.896;30.474;2023-03-23T14:02:34;4.45;;;1.98;;
79036;SDS011;68434;59.896;30.474;2023-03-23T14:05:08;10.43;;;2.67;;
79036;SDS011;68434;59.896;30.474;2023-03-23T14:07:58;4.93;;;2.45;;
79036;SDS011;68434;59.896;30.474;2023-03-23T14:10:34;4.47;;;2.40;;
79036;SDS011;68434;59.896;30.474;2023-03-23T14:13:03;3.70;;;2.65;;
79036;SDS011;68434;59.896;30.474;2023-03-23T14:15:40;5.55;;;2.53;;
79036;SDS011;68434;59.896;30.474;2023-03-23T14:18:13;5.25;;;2.63;;
79036;SDS011;68434;59.896;30.474;2023-03-23T14:20:45;5.28;;;2.47;;
79036;SDS011;68434;59.896;30.474;2023-03-23T14:23:19;4.82;;;2.88;;
79036;SDS011;68434;59.896;30.474;2023-03-23T14:25:54;5.05;;;2.33;;
79036;SDS011;68434;59.896;30.474;2023-03-23T14:28:23;5.82;;;2.75;;
79036;SDS011;68434;59.896;30.474;2023-03-23T14:30:54;9.00;;;2.70;;
79036;SDS011;68434;59.896;30.474;2023-03-23T14:33:23;8.45;;;3.45;;
79036;SDS011;68434;59.896;30.474;2023-03-23T14:35:52;8.05;;;2.80;;
79036;SDS011;68434;59.896;30.474;2023-03-23T14:38:23;5.03;;;3.05;;
79036;SDS011;68434;59.896;30.474;2023-03-23T14:41:00;8.20;;;2.58;;
79036;SDS011;68434;59.896;30.474;2023-03-23T14:43:30;6.80;;;2.40;;
79036;SDS011;68434;59.896;30.474;2023-03-23T14:46:00;5.25;;;2.30;;
79036;SDS011;68434;59.896;30.474;2023-03-23T14:48:32;6.10;;;2.33;;
79036;SDS011;68434;59.896;30.474;2023-03-23T14:51:01;5.18;;;2.30;;
79036;SDS011;68434;59.896;30.474;2023-03-23T14:53:32;3.60;;;2.20;;
79036;SDS011;68434;59.896;30.474;2023-03-23T14:56:04;9.10;;;4.25;;
79036;SDS011;68434;59.896;30.474;2023-03-23T14:58:37;3.97;;;2.47;;
79036;SDS011;68434;59.896;30.474;2023-03-23T15:01:06;5.00;;;2.13;;
79036;SDS011;68434;59.896;30.474;2023-03-23T15:03:38;4.70;;;2.10;;
79036;SDS011;68434;59.896;30.474;2023-03-23T15:06:10;5.30;;;2.58;;
79036;SDS011;68434;59.896;30.474;2023-03-23T15:08:42;5.35;;;2.63;;
79036;SDS011;68434;59.896;30.474;2023-03-23T15:11:12;5.78;;;2.30;;
79036;SDS011;68434;59.896;30.474;2023-03-23T15:13:48;10.27;;;2.70;;
79036;SDS011;68434;59.896;30.474;2023-03-23T15:16:20;4.13;;;2.50;;
79036;SDS011;68434;59.896;30.474;2023-03-23T15:18:51;5.25;;;3.45;;
79036;SDS011;68434;59.896;30.474;2023-03-23T15:21:22;5.50;;;2.53;;
79036;SDS011;68434;59.896;30.474;2023-03-23T15:23:54;6.15;;;2.45;;
79036;SDS011;68434;59.896;30.474;2023-03-23T15:26:27;7.57;;;2.75;;
79036;SDS011;68434;59.896;30.474;2023-03-23T15:29:11;8.82;;;3.20;;
79036;SDS011;68434;59.896;30.474;2023-03-23T15:31:42;4.47;;;2.60;;
79036;SDS011;68434;59.896;30.474;2023-03-23T15:34:20;5.75;;;2.83;;
79036;SDS011;68434;59.896;30.474;2023-03-23T15:36:54;5.05;;;2.30;;
79036;SDS011;68434;59.896;30.474;2023-03-23T15:39:25;6.30;;;3.20;;
79036;SDS011;68434;59.896;30.474;2023-03-23T15:41:54;6.97;;;3.25;;